Time,TemperatureF,DewpointF,PressureIn,WindDirection,WindDirectionDegrees,WindSpeedMPH,WindSpeedGustMPH,Humidity,HourlyPrecipIn,Conditions,Clouds,dailyrainin,SolarRadiationWatts/m^2,SoftwareType,DateUTC
2017-05-29 00:04:00,54.6,50.8,29.95,SSW,207,3.5,3.5,87,0.00,CLR,SKC,0.00,0.0,WeatherDisplay:10.37,2017-05-29 04:04:00,
2017-05-29 00:09:00,54.3,50.5,29.95,SSW,196,2.0,2.0,87,0.00,CLR,SKC,0.00,0.0,WeatherDisplay:10.37,2017-05-29 04:09:00,
2017-05-29 00:14:00,54.2,50.4,29.95,South,178,1.0,1.0,87,0.00,CLR,SKC,0.00,0.0,WeatherDisplay:10.37,2017-05-29 04:14:00,
2017-05-29 00:19:00,54.0,50.2,29.95,SSW,196,3.0,3.0,87,0.00,CLR,SKC,0.00,0.0,WeatherDisplay:10.37,2017-05-29 04:19:00,
2017-05-29 00:24:00,53.9,50.4,29.95,South,191,6.9,6.9,88,0.00,CLR,SKC,0.00,0.0,WeatherDisplay:10.37,2017-05-29 04:24:00,
2017-05-29 00:29:00,53.7,50.2,29.95,SSW,192,0.0,0.0,88,0.00,CLR,SKC,0.00,0.0,WeatherDisplay:10.37,2017-05-29 04:29:00,
2017-05-29 00:34:00,53.5,50.0,29.95,SSW,196,2.3,0.0,88,0.00,CLR,SKC,0.00,0.0,WeatherDisplay:10.37,2017-05-29 04:34:00,
2017-05-29 00:39:00,53.4,49.9,29.95,SSW,213,6.9,6.9,88,0.00,CLR,SKC,0.00,0.0,WeatherDisplay:10.37,2017-05-29 04:39:00,
2017-05-29 00:44:00,53.2,49.7,29.95,SSW,213,0.0,0.0,88,0.00,CLR,SKC,0.00,0.0,WeatherDisplay:10.37,2017-05-29 04:44:00,
2017-05-29 00:49:00,53.0,49.5,29.95,SE,143,0.0,0.0,88,0.00,CLR,SKC,0.00,0.0,WeatherDisplay:10.37,2017-05-29 04:49:00,
2017-05-29 00:54:00,52.8,49.3,29.95,SE,144,0.0,0.0,88,0.00,CLR,SKC,0.00,0.0,WeatherDisplay:10.37,2017-05-29 04:54:00,
2017-05-29 00:59:00,52.7,49.2,29.95,SE,144,0.0,0.0,88,0.00,CLR,SKC,0.00,0.0,WeatherDisplay:10.37,2017-05-29 04:59:00,
2017-05-29 01:04:00,52.5,49.4,29.95,SE,144,0.0,0.0,89,0.00,CLR,SKC,0.00,0.0,WeatherDisplay:10.37,2017-05-29 05:04:00,
2017-05-29 01:05:00,52.5,49.4,29.95,SE,144,0.0,0.0,89,0.00,CLR,SKC,0.00,0.0,WeatherDisplay:10.37,2017-05-29 05:05:00,
2017-05-29 01:10:00,52.3,49.2,29.95,SSE,150,0.0,0.0,89,0.00,CLR,SKC,0.00,0.0,WeatherDisplay:10.37,2017-05-29 05:10:00,
2017-05-29 01:15:00,52.2,49.1,29.95,SSE,162,3.5,0.0,89,0.00,CLR,SKC,0.00,0.0,WeatherDisplay:10.37,2017-05-29 05:15:00,
2017-05-29 01:20:00,52.0,48.9,29.95,SSE,162,0.0,0.0,89,0.00,CLR,SKC,0.00,0.0,WeatherDisplay:10.37,2017-05-29 05:20:00,
2017-05-29 01:25:00,51.9,48.8,29.95,SSE,162,0.0,0.0,89,0.00,CLR,SKC,0.00,0.0,WeatherDisplay:10.37,2017-05-29 05:25:00,
2017-05-29 01:30:00,51.7,48.6,29.95,SSE,163,0.0,0.0,89,0.00,CLR,SKC,0.00,0.0,WeatherDisplay:10.37,2017-05-29 05:30:00,
2017-05-29 01:35:00,51.4,48.3,29.95,SSE,163,0.0,0.0,89,0.00,CLR,SKC,0.00,0.0,WeatherDisplay:10.37,2017-05-29 05:35:00,
2017-05-29 01:40:00,51.3,48.2,29.95,SSE,163,0.0,0.0,89,0.00,CLR,SKC,0.00,0.0,WeatherDisplay:10.37,2017-05-29 05:40:00,
2017-05-29 01:45:00,51.1,48.0,29.95,SSE,163,0.0,0.0,89,0.00,CLR,SKC,0.00,0.0,WeatherDisplay:10.37,2017-05-29 05:45:00,
2017-05-29 01:50:00,50.9,47.8,29.95,SSE,163,0.0,0.0,89,0.00,CLR,SKC,0.00,0.0,WeatherDisplay:10.37,2017-05-29 05:50:00,
2017-05-29 01:55:00,50.6,47.5,29.95,SSE,163,0.0,0.0,89,0.00,CLR,SKC,0.00,0.0,WeatherDisplay:10.37,2017-05-29 05:55:00,
2017-05-29 02:00:00,50.4,47.3,29.95,South,171,0.0,0.0,89,0.00,CLR,SKC,0.00,0.0,WeatherDisplay:10.37,2017-05-29 06:00:00,
2017-05-29 02:05:00,50.3,47.5,29.94,South,169,1.2,0.0,90,0.00,CLR,SKC,0.00,0.0,WeatherDisplay:10.37,2017-05-29 06:05:00,
2017-05-29 02:10:00,50.1,47.3,29.94,SSE,163,0.0,0.0,90,0.00,CLR,SKC,0.00,0.0,WeatherDisplay:10.37,2017-05-29 06:10:00,
2017-05-29 02:15:00,49.9,47.1,29.95,South,178,2.3,2.3,90,0.00,CLR,SKC,0.00,0.0,WeatherDisplay:10.37,2017-05-29 06:15:00,
2017-05-29 02:20:00,49.8,47.0,29.95,South,173,0.0,0.0,90,0.00,CLR,SKC,0.00,0.0,WeatherDisplay:10.37,2017-05-29 06:20:00,
2017-05-29 02:25:00,49.6,46.8,29.95,South,171,0.0,0.0,90,0.00,CLR,SKC,0.00,0.0,WeatherDisplay:10.37,2017-05-29 06:25:00,
2017-05-29 02:30:00,49.5,46.7,29.95,SSE,163,0.0,0.0,90,0.00,CLR,SKC,0.00,0.0,WeatherDisplay:10.37,2017-05-29 06:30:00,
2017-05-29 02:35:00,49.3,46.8,29.95,SSE,158,1.2,1.2,91,0.00,CLR,SKC,0.00,0.0,WeatherDisplay:10.37,2017-05-29 06:35:00,
2017-05-29 02:40:00,49.2,46.7,29.95,SSE,166,3.5,3.5,91,0.00,CLR,SKC,0.00,0.0,WeatherDisplay:10.37,2017-05-29 06:40:00,
2017-05-29 02:45:00,49.1,46.6,29.95,SSE,155,1.2,1.2,91,0.00,CLR,SKC,0.00,0.0,WeatherDisplay:10.37,2017-05-29 06:45:00,
2017-05-29 02:50:00,49.0,46.8,29.95,SSE,162,1.2,0.0,92,0.00,CLR,SKC,0.00,0.0,WeatherDisplay:10.37,2017-05-29 06:50:00,
2017-05-29 02:55:00,48.9,46.7,29.95,SE,142,0.0,1.1,92,0.00,CLR,SKC,0.00,0.0,WeatherDisplay:10.37,2017-05-29 06:55:00,
2017-05-29 03:00:00,48.8,46.6,29.95,SE,143,0.0,0.1,92,0.00,CLR,SKC,0.00,0.0,WeatherDisplay:10.37,2017-05-29 07:00:00,
2017-05-29 03:05:00,48.7,46.5,29.95,SE,142,0.0,0.0,92,0.00,CLR,SKC,0.00,0.0,WeatherDisplay:10.37,2017-05-29 07:05:00,
2017-05-29 03:10:00,48.6,46.4,29.95,SE,142,0.0,0.0,92,0.00,CLR,SKC,0.00,0.0,WeatherDisplay:10.37,2017-05-29 07:10:00,
2017-05-29 03:15:00,48.4,46.2,29.95,SE,142,0.0,0.0,92,0.00,CLR,SKC,0.00,0.0,WeatherDisplay:10.37,2017-05-29 07:15:00,
2017-05-29 03:20:00,48.2,46.0,29.95,SE,142,0.0,0.0,92,0.00,CLR,SKC,0.00,0.0,WeatherDisplay:10.37,2017-05-29 07:20:00,
2017-05-29 03:25:00,48.1,45.9,29.95,SE,142,0.0,0.0,92,0.00,CLR,SKC,0.00,0.0,WeatherDisplay:10.37,2017-05-29 07:25:00,
2017-05-29 03:26:00,48.0,45.8,29.95,SE,142,0.0,0.0,92,0.00,CLR,SKC,0.00,0.0,WeatherDisplay:10.37,2017-05-29 07:26:00,
2017-05-29 03:30:00,47.9,46.0,29.95,SE,141,0.0,0.0,93,0.00,CLR,SKC,0.00,0.0,WeatherDisplay:10.37,2017-05-29 07:30:00,
2017-05-29 03:35:00,47.8,45.6,29.95,SE,142,0.0,0.0,92,0.00,CLR,SKC,0.00,0.0,WeatherDisplay:10.37,2017-05-29 07:35:00,
2017-05-29 03:40:00,47.6,45.4,29.95,SE,143,0.0,0.0,92,0.00,CLR,SKC,0.00,0.0,WeatherDisplay:10.37,2017-05-29 07:40:00,
2017-05-29 03:45:00,47.4,45.2,29.95,SE,146,2.3,2.3,92,0.00,CLR,SKC,0.00,0.0,WeatherDisplay:10.37,2017-05-29 07:45:00,
2017-05-29 03:50:00,47.3,45.4,29.95,SE,142,0.0,0.7,93,0.00,CLR,SKC,0.00,0.0,WeatherDisplay:10.37,2017-05-29 07:50:00,
2017-05-29 03:55:00,47.2,45.3,29.95,SE,140,0.0,0.0,93,0.00,CLR,SKC,0.00,0.0,WeatherDisplay:10.37,2017-05-29 07:55:00,
2017-05-29 04:00:00,47.2,45.3,29.95,SE,141,1.2,1.2,93,0.00,CLR,SKC,0.00,0.0,WeatherDisplay:10.37,2017-05-29 08:00:00,
2017-05-29 04:05:00,47.1,45.2,29.95,SE,142,0.0,0.0,93,0.00,CLR,SKC,0.00,0.0,WeatherDisplay:10.37,2017-05-29 08:05:00,
2017-05-29 04:10:00,47.1,45.2,29.95,SE,141,0.0,0.0,93,0.00,CLR,SKC,0.00,0.0,WeatherDisplay:10.37,2017-05-29 08:10:00,
2017-05-29 04:15:00,47.0,45.1,29.95,SE,144,2.3,2.3,93,0.00,CLR,SKC,0.00,0.0,WeatherDisplay:10.37,2017-05-29 08:15:00,
2017-05-29 04:20:00,47.0,45.1,29.95,SE,144,0.0,0.0,93,0.00,CLR,SKC,0.00,0.0,WeatherDisplay:10.37,2017-05-29 08:20:00,
2017-05-29 04:25:00,46.9,45.0,29.95,SSE,147,1.2,1.2,93,0.00,CLR,SKC,0.00,0.0,WeatherDisplay:10.37,2017-05-29 08:25:00,
2017-05-29 04:30:00,46.8,44.9,29.95,SE,136,1.2,1.2,93,0.00,CLR,SKC,0.00,0.0,WeatherDisplay:10.37,2017-05-29 08:30:00,
2017-05-29 04:35:00,46.7,44.8,29.95,SE,135,0.0,0.0,93,0.00,CLR,SKC,0.00,0.0,WeatherDisplay:10.37,2017-05-29 08:35:00,
2017-05-29 04:40:00,46.7,44.8,29.95,ESE,118,1.2,1.2,93,0.00,CLR,SKC,0.00,0.0,WeatherDisplay:10.37,2017-05-29 08:40:00,
2017-05-29 04:45:00,46.7,44.8,29.95,ESE,116,0.0,0.0,93,0.00,CLR,SKC,0.00,0.0,WeatherDisplay:10.37,2017-05-29 08:45:00,
2017-05-29 04:50:00,46.7,45.1,29.95,ESE,117,0.0,0.0,94,0.00,CLR,SKC,0.00,0.0,WeatherDisplay:10.37,2017-05-29 08:50:00,
2017-05-29 04:55:00,46.7,45.1,29.95,ESE,105,1.2,0.0,94,0.00,CLR,SKC,0.00,0.0,WeatherDisplay:10.37,2017-05-29 08:55:00,
2017-05-29 04:56:00,46.7,45.1,29.95,ESE,104,0.0,0.0,94,0.00,CLR,SKC,0.00,0.0,WeatherDisplay:10.37,2017-05-29 08:56:00,
2017-05-29 05:01:00,46.7,45.1,29.95,ESE,103,1.2,1.2,94,0.00,CLR,SKC,0.00,0.0,WeatherDisplay:10.37,2017-05-29 09:01:00,
2017-05-29 05:06:00,46.7,45.1,29.95,East,98,2.3,2.3,94,0.00,CLR,SKC,0.00,0.0,WeatherDisplay:10.37,2017-05-29 09:06:00,
2017-05-29 05:11:00,46.8,45.2,29.95,East,100,3.5,3.5,94,0.00,CLR,SKC,0.00,5.0,WeatherDisplay:10.37,2017-05-29 09:11:00,
2017-05-29 05:16:00,46.8,45.2,29.96,ESE,103,0.0,0.0,94,0.00,FEW,SKC,0.00,7.0,WeatherDisplay:10.37,2017-05-29 09:16:00,
2017-05-29 05:21:00,46.8,45.2,29.95,East,97,0.0,0.0,94,0.00,BKN,SKC,0.00,7.0,WeatherDisplay:10.37,2017-05-29 09:21:00,
2017-05-29 05:26:00,46.9,45.3,29.96,East,96,0.0,0.0,94,0.00,BKN,SKC,0.00,11.0,WeatherDisplay:10.37,2017-05-29 09:26:00,
2017-05-29 05:31:00,46.9,45.3,29.96,ESE,102,0.0,0.0,94,0.00,BKN,SKC,0.00,12.0,WeatherDisplay:10.37,2017-05-29 09:31:00,
2017-05-29 05:36:00,46.9,45.3,29.96,ESE,108,0.0,0.0,94,0.00,BKN,SKC,0.00,12.0,WeatherDisplay:10.37,2017-05-29 09:36:00,
2017-05-29 05:41:00,47.0,45.4,29.96,ESE,105,2.3,2.3,94,0.00,BKN,SKC,0.00,12.0,WeatherDisplay:10.37,2017-05-29 09:41:00,
2017-05-29 05:46:00,47.1,45.5,29.96,East,100,3.5,3.5,94,0.00,BKN,SKC,0.00,11.0,WeatherDisplay:10.37,2017-05-29 09:46:00,
2017-05-29 05:51:00,47.1,45.5,29.96,East,101,2.3,2.3,94,0.00,BKN,SKC,0.00,14.0,WeatherDisplay:10.37,2017-05-29 09:51:00,
2017-05-29 05:56:00,47.2,45.6,29.96,East,86,3.5,3.5,94,0.00,BKN,SKC,0.00,19.0,WeatherDisplay:10.37,2017-05-29 09:56:00,
2017-05-29 06:01:00,47.3,45.7,29.95,East,83,0.0,0.0,94,0.00,BKN,SKC,0.00,26.0,WeatherDisplay:10.37,2017-05-29 10:01:00,
2017-05-29 06:06:00,47.4,45.8,29.95,SE,133,0.0,0.0,94,0.00,BKN,SKC,0.00,35.0,WeatherDisplay:10.37,2017-05-29 10:06:00,
2017-05-29 06:11:00,47.5,45.9,29.95,ESE,102,0.0,0.5,94,0.00,BKN,SKC,0.00,49.0,WeatherDisplay:10.37,2017-05-29 10:11:00,
2017-05-29 06:16:00,47.6,46.0,29.95,East,97,4.6,4.6,94,0.00,BKN,SKC,0.00,56.0,WeatherDisplay:10.37,2017-05-29 10:16:00,
2017-05-29 06:21:00,47.8,46.2,29.96,ESE,116,3.5,3.5,94,0.00,BKN,SKC,0.00,51.0,WeatherDisplay:10.37,2017-05-29 10:21:00,
2017-05-29 06:26:00,48.0,46.4,29.97,ESE,103,3.5,3.5,94,0.00,BKN,SKC,0.00,44.0,WeatherDisplay:10.37,2017-05-29 10:26:00,
2017-05-29 06:31:00,48.1,46.5,29.97,ENE,62,6.9,6.9,94,0.00,BKN,SKC,0.00,40.0,WeatherDisplay:10.37,2017-05-29 10:31:00,
2017-05-29 06:36:00,48.3,46.7,29.96,ENE,69,12.7,12.7,94,0.00,BKN,SKC,0.00,42.0,WeatherDisplay:10.37,2017-05-29 10:36:00,
2017-05-29 06:41:00,48.4,46.8,29.96,East,89,3.5,3.5,94,0.00,BKN,SKC,0.00,49.0,WeatherDisplay:10.37,2017-05-29 10:41:00,
2017-05-29 06:46:00,48.6,47.0,29.97,ENE,70,6.9,6.9,94,0.00,BKN,SKC,0.00,63.0,WeatherDisplay:10.37,2017-05-29 10:46:00,
2017-05-29 06:56:00,48.8,46.9,29.97,ESE,107,7.0,7.0,93,0.00,BKN,SKC,0.00,95.0,WeatherDisplay:10.37,2017-05-29 10:56:00,
2017-05-29 07:01:00,49.0,47.3,29.98,SE,126,5.0,5.0,94,0.00,BKN,SKC,0.00,105.0,WeatherDisplay:10.37,2017-05-29 11:01:00,
2017-05-29 07:06:00,49.2,47.3,29.97,ESE,117,3.5,3.5,93,0.00,BKN,SKC,0.00,74.0,WeatherDisplay:10.37,2017-05-29 11:06:00,
2017-05-29 07:11:00,49.3,47.4,29.97,ESE,109,6.9,6.9,93,0.00,BKN,SKC,0.00,69.0,WeatherDisplay:10.37,2017-05-29 11:11:00,
2017-05-29 07:16:00,49.4,47.5,29.97,ENE,76,3.0,3.0,93,0.00,BKN,SKC,0.00,104.0,WeatherDisplay:10.37,2017-05-29 11:16:00,
2017-05-29 07:21:00,49.6,47.7,29.97,ENE,74,5.0,5.0,93,0.00,SCT,SKC,0.00,163.0,WeatherDisplay:10.37,2017-05-29 11:21:00,
2017-05-29 07:26:00,49.8,47.9,29.97,ENE,66,6.9,6.9,93,0.00,BKN,SKC,0.00,137.0,WeatherDisplay:10.37,2017-05-29 11:26:00,
2017-05-29 07:31:00,49.9,48.0,29.97,East,101,3.5,3.5,93,0.00,BKN,SKC,0.00,144.0,WeatherDisplay:10.37,2017-05-29 11:31:00,
2017-05-29 07:36:00,50.1,47.9,29.97,SSE,157,0.0,0.0,92,0.00,BKN,SKC,0.00,169.0,WeatherDisplay:10.37,2017-05-29 11:36:00,
2017-05-29 07:41:00,50.3,48.1,29.97,ENE,78,3.5,3.5,92,0.00,BKN,SKC,0.00,153.0,WeatherDisplay:10.37,2017-05-29 11:41:00,
2017-05-29 07:46:00,50.6,48.4,29.97,NE,42,3.5,3.5,92,0.00,BKN,SKC,0.00,137.0,WeatherDisplay:10.37,2017-05-29 11:46:00,
2017-05-29 07:51:00,50.7,48.2,29.97,SE,132,5.0,5.0,91,0.00,BKN,SKC,0.00,156.0,WeatherDisplay:10.37,2017-05-29 11:51:00,
2017-05-29 07:56:00,50.7,47.9,29.98,East,90,9.2,9.2,90,0.00,BKN,SKC,0.00,123.0,WeatherDisplay:10.37,2017-05-29 11:56:00,
2017-05-29 08:01:00,50.8,48.0,29.98,SSE,159,5.8,5.8,90,0.00,BKN,SKC,0.00,114.0,WeatherDisplay:10.37,2017-05-29 12:01:00,
2017-05-29 08:06:00,50.9,48.1,29.98,SE,142,9.2,9.2,90,0.00,BKN,SKC,0.00,120.0,WeatherDisplay:10.37,2017-05-29 12:06:00,
2017-05-29 08:11:00,51.0,48.2,29.97,SSE,147,3.5,3.5,90,0.00,BKN,SKC,0.00,132.0,WeatherDisplay:10.37,2017-05-29 12:11:00,
2017-05-29 08:16:00,51.0,47.9,29.97,East,92,9.2,9.2,89,0.00,BKN,SKC,0.00,141.0,WeatherDisplay:10.37,2017-05-29 12:16:00,
2017-05-29 08:21:00,51.2,48.1,29.97,SSE,168,5.8,5.8,89,0.00,BKN,SKC,0.00,167.0,WeatherDisplay:10.37,2017-05-29 12:21:00,
2017-05-29 08:26:00,51.3,48.2,29.97,ESE,102,2.3,2.3,89,0.00,BKN,SKC,0.00,155.0,WeatherDisplay:10.37,2017-05-29 12:26:00,
2017-05-29 08:31:00,51.4,48.3,29.97,NE,34,6.9,6.9,89,0.00,BKN,SKC,0.00,165.0,WeatherDisplay:10.37,2017-05-29 12:31:00,
2017-05-29 08:36:00,51.5,48.1,29.97,SE,143,6.9,6.9,88,0.00,BKN,SKC,0.00,220.0,WeatherDisplay:10.37,2017-05-29 12:36:00,
2017-05-29 08:41:00,51.7,48.3,29.96,ESE,111,6.9,6.9,88,0.00,BKN,SKC,0.00,213.0,WeatherDisplay:10.37,2017-05-29 12:41:00,
2017-05-29 08:46:00,51.9,48.5,29.96,ESE,122,4.6,4.6,88,0.00,BKN,SKC,0.00,158.0,WeatherDisplay:10.37,2017-05-29 12:46:00,
2017-05-29 08:51:00,52.1,48.7,29.97,SSE,166,5.8,5.8,88,0.00,BKN,SKC,0.00,181.0,WeatherDisplay:10.37,2017-05-29 12:51:00,
2017-05-29 08:56:00,52.3,48.9,29.96,SE,138,4.6,4.6,88,0.00,BKN,SKC,0.00,200.0,WeatherDisplay:10.37,2017-05-29 12:56:00,
2017-05-29 09:01:00,52.6,49.1,29.97,South,171,3.5,3.5,88,0.00,BKN,SKC,0.00,195.0,WeatherDisplay:10.37,2017-05-29 13:01:00,
2017-05-29 09:06:00,52.7,48.9,29.97,SSE,150,11.5,11.5,87,0.00,BKN,SKC,0.00,209.0,WeatherDisplay:10.37,2017-05-29 13:06:00,
2017-05-29 09:11:00,52.9,49.1,29.98,SE,126,8.1,8.1,87,0.00,BKN,SKC,0.00,183.0,WeatherDisplay:10.37,2017-05-29 13:11:00,
2017-05-29 09:16:00,53.0,48.9,29.98,SE,144,8.1,8.1,86,0.00,BKN,SKC,0.00,192.0,WeatherDisplay:10.37,2017-05-29 13:16:00,
2017-05-29 09:21:00,53.1,49.0,29.97,East,88,6.9,6.9,86,0.00,BKN,SKC,0.00,174.0,WeatherDisplay:10.37,2017-05-29 13:21:00,
2017-05-29 09:26:00,53.2,48.8,29.97,ESE,103,5.8,5.8,85,0.00,BKN,SKC,0.00,132.0,WeatherDisplay:10.37,2017-05-29 13:26:00,
2017-05-29 09:31:00,53.2,48.8,29.97,East,89,8.1,8.1,85,0.00,BKN,SKC,0.00,160.0,WeatherDisplay:10.37,2017-05-29 13:31:00,
2017-05-29 09:36:00,53.2,49.1,29.97,East,86,10.4,10.4,86,0.00,BKN,SKC,0.00,123.0,WeatherDisplay:10.37,2017-05-29 13:36:00,
2017-05-29 09:41:00,53.2,48.8,29.97,SE,130,10.4,10.4,85,0.00,BKN,SKC,0.00,181.0,WeatherDisplay:10.37,2017-05-29 13:41:00,
2017-05-29 09:46:00,53.2,48.8,29.97,NE,53,3.5,3.5,85,0.00,BKN,SKC,0.00,179.0,WeatherDisplay:10.37,2017-05-29 13:46:00,
2017-05-29 09:51:00,53.3,48.9,29.98,NE,41,0.0,0.0,85,0.00,BKN,SKC,0.00,116.0,WeatherDisplay:10.37,2017-05-29 13:51:00,
2017-05-29 09:56:00,53.2,48.8,29.97,ESE,106,7.0,7.0,85,0.00,BKN,SKC,0.00,105.0,WeatherDisplay:10.37,2017-05-29 13:56:00,
2017-05-29 10:06:00,53.1,48.7,29.97,ESE,117,9.2,9.2,85,0.00,BKN,SKC,0.00,142.0,WeatherDisplay:10.37,2017-05-29 14:06:00,
2017-05-29 10:11:00,53.1,48.7,29.97,ENE,76,6.9,6.9,85,0.00,BKN,SKC,0.00,146.0,WeatherDisplay:10.37,2017-05-29 14:11:00,
2017-05-29 10:16:00,53.2,49.1,29.97,ENE,71,3.5,3.5,86,0.00,BKN,SKC,0.00,171.0,WeatherDisplay:10.37,2017-05-29 14:16:00,
2017-05-29 10:21:00,53.2,48.8,29.97,ENE,77,9.2,9.2,85,0.00,BKN,SKC,0.00,132.0,WeatherDisplay:10.37,2017-05-29 14:21:00,
2017-05-29 10:22:00,53.3,48.9,29.97,ESE,111,3.5,3.5,85,0.00,BKN,SKC,0.00,127.0,WeatherDisplay:10.37,2017-05-29 14:22:00,
2017-05-29 10:27:00,53.3,48.9,29.97,ESE,115,2.3,0.0,85,0.00,BKN,SKC,0.00,125.0,WeatherDisplay:10.37,2017-05-29 14:27:00,
2017-05-29 10:32:00,53.4,48.7,29.97,ENE,67,0.0,0.0,84,0.00,BKN,SKC,0.00,202.0,WeatherDisplay:10.37,2017-05-29 14:32:00,
2017-05-29 10:37:00,53.6,49.2,29.97,East,99,6.9,6.9,85,0.00,BKN,SKC,0.00,237.0,WeatherDisplay:10.37,2017-05-29 14:37:00,
2017-05-29 10:42:00,53.7,49.0,29.97,SSE,152,6.9,6.9,84,0.00,BKN,SKC,0.00,146.0,WeatherDisplay:10.37,2017-05-29 14:42:00,
2017-05-29 10:47:00,53.8,49.1,29.97,ENE,62,4.6,4.6,84,0.00,BKN,SKC,0.00,156.0,WeatherDisplay:10.37,2017-05-29 14:47:00,
2017-05-29 10:52:00,53.9,49.2,29.98,SE,131,4.6,0.0,84,0.00,BKN,SKC,0.00,141.0,WeatherDisplay:10.37,2017-05-29 14:52:00,
2017-05-29 10:57:00,53.9,48.9,29.98,ESE,102,4.0,4.0,83,0.00,BKN,SKC,0.00,125.0,WeatherDisplay:10.37,2017-05-29 14:57:00,
2017-05-29 11:02:00,53.9,48.9,29.98,NE,51,10.4,10.4,83,0.00,BKN,SKC,0.00,98.0,WeatherDisplay:10.37,2017-05-29 15:02:00,
2017-05-29 11:07:00,53.8,48.8,29.98,SE,132,6.9,6.9,83,0.00,BKN,SKC,0.00,98.0,WeatherDisplay:10.37,2017-05-29 15:07:00,
2017-05-29 11:12:00,53.6,48.6,29.98,ENE,65,5.0,5.0,83,0.00,BKN,SKC,0.00,88.0,WeatherDisplay:10.37,2017-05-29 15:12:00,
2017-05-29 11:17:00,53.5,48.5,29.98,ENE,57,5.8,0.0,83,0.00,BKN,SKC,0.00,181.0,WeatherDisplay:10.37,2017-05-29 15:17:00,
2017-05-29 11:22:00,53.4,48.7,29.98,SE,136,12.7,12.7,84,0.00,BKN,SKC,0.00,137.0,WeatherDisplay:10.37,2017-05-29 15:22:00,
2017-05-29 11:27:00,53.4,48.7,29.98,ESE,107,9.2,9.2,84,0.00,BKN,SKC,0.00,93.0,WeatherDisplay:10.37,2017-05-29 15:27:00,
2017-05-29 11:32:00,53.3,48.9,29.98,ESE,114,11.5,11.5,85,0.00,BKN,SKC,0.00,111.0,WeatherDisplay:10.37,2017-05-29 15:32:00,
2017-05-29 11:37:00,53.3,49.2,29.98,SSE,165,6.9,6.9,86,0.00,BKN,SKC,0.00,91.0,WeatherDisplay:10.37,2017-05-29 15:37:00,
2017-05-29 11:42:00,53.3,49.2,29.98,North,5,9.2,9.2,86,0.00,BKN,SKC,0.00,70.0,WeatherDisplay:10.37,2017-05-29 15:42:00,
2017-05-29 11:47:00,53.0,48.9,29.98,East,97,11.0,11.0,86,0.00,BKN,SKC,0.00,74.0,WeatherDisplay:10.37,2017-05-29 15:47:00,
2017-05-29 11:52:00,52.8,48.7,29.99,ENE,65,11.5,11.5,86,0.00,BKN,SKC,0.00,69.0,WeatherDisplay:10.37,2017-05-29 15:52:00,
2017-05-29 11:57:00,52.6,48.5,29.98,East,87,4.0,4.0,86,0.00,BKN,SKC,0.00,83.0,WeatherDisplay:10.37,2017-05-29 15:57:00,
2017-05-29 12:02:00,52.3,48.5,29.99,ENE,65,11.5,11.5,87,0.00,BKN,SKC,0.00,107.0,WeatherDisplay:10.37,2017-05-29 16:02:00,
2017-05-29 12:07:00,52.1,48.7,29.99,ENE,76,11.5,11.5,88,0.00,BKN,SKC,0.00,225.0,WeatherDisplay:10.37,2017-05-29 16:07:00,
2017-05-29 12:12:00,52.2,49.1,29.99,East,96,3.5,3.5,89,0.00,BKN,SKC,0.00,221.0,WeatherDisplay:10.37,2017-05-29 16:12:00,
2017-05-29 12:17:00,52.3,49.5,29.99,NE,55,11.5,11.5,90,0.01,RA,SKC,0.01,192.0,WeatherDisplay:10.37,2017-05-29 16:17:00,
2017-05-29 12:22:00,52.1,49.3,29.99,SE,144,4.0,4.0,90,0.01,RA,SKC,0.01,144.0,WeatherDisplay:10.37,2017-05-29 16:22:00,
2017-05-29 12:27:00,52.0,49.2,29.99,SE,132,0.0,0.0,90,0.01,BKN,SKC,0.01,93.0,WeatherDisplay:10.37,2017-05-29 16:27:00,
2017-05-29 12:28:00,52.0,49.2,29.99,ENE,59,2.0,2.0,90,0.01,BKN,SKC,0.01,100.0,WeatherDisplay:10.37,2017-05-29 16:28:00,
2017-05-29 12:33:00,51.9,49.1,29.99,ENE,72,0.0,0.0,90,0.01,BKN,SKC,0.01,97.0,WeatherDisplay:10.37,2017-05-29 16:33:00,
2017-05-29 12:36:00,51.9,49.4,29.99,East,90,9.2,9.2,91,0.01,BKN,SKC,0.01,90.0,WeatherDisplay:10.37,2017-05-29 16:36:00,
2017-05-29 12:41:00,51.7,48.9,30.00,NE,48,3.5,0.0,90,0.01,BKN,SKC,0.01,118.0,WeatherDisplay:10.37,2017-05-29 16:41:00,
2017-05-29 12:46:00,51.7,49.2,30.00,ESE,102,3.0,3.0,91,0.01,BKN,SKC,0.01,169.0,WeatherDisplay:10.37,2017-05-29 16:46:00,
2017-05-29 12:51:00,51.6,49.1,29.99,East,81,6.9,6.9,91,0.01,BKN,SKC,0.01,139.0,WeatherDisplay:10.37,2017-05-29 16:51:00,
2017-05-29 12:56:00,51.5,49.0,29.99,ESE,102,9.2,9.2,91,0.02,RA,SKC,0.02,134.0,WeatherDisplay:10.37,2017-05-29 16:56:00,
2017-05-29 13:01:00,51.5,49.3,29.99,ENE,64,5.8,5.8,92,0.02,RA,SKC,0.02,83.0,WeatherDisplay:10.37,2017-05-29 17:01:00,
2017-05-29 13:06:00,51.5,49.3,30.00,SE,135,1.0,0.0,92,0.02,BKN,SKC,0.02,83.0,WeatherDisplay:10.37,2017-05-29 17:06:00,
2017-05-29 13:11:00,51.3,49.1,30.00,ESE,115,9.2,9.2,92,0.02,BKN,SKC,0.02,93.0,WeatherDisplay:10.37,2017-05-29 17:11:00,
2017-05-29 13:16:00,51.2,49.0,30.00,South,175,8.1,8.1,92,0.01,BKN,SKC,0.02,109.0,WeatherDisplay:10.37,2017-05-29 17:16:00,
2017-05-29 13:21:00,51.0,48.8,30.00,ENE,68,9.2,9.2,92,0.01,BKN,SKC,0.02,83.0,WeatherDisplay:10.37,2017-05-29 17:21:00,
2017-05-29 13:26:00,50.8,48.6,30.00,NE,48,0.0,0.0,92,0.01,BKN,SKC,0.02,100.0,WeatherDisplay:10.37,2017-05-29 17:26:00,
2017-05-29 13:31:00,50.8,48.6,30.00,East,96,2.0,0.0,92,0.01,BKN,SKC,0.02,137.0,WeatherDisplay:10.37,2017-05-29 17:31:00,
2017-05-29 13:36:00,50.9,48.7,30.00,East,86,9.2,9.2,92,0.01,BKN,SKC,0.02,86.0,WeatherDisplay:10.37,2017-05-29 17:36:00,
2017-05-29 13:41:00,50.7,48.5,30.00,ENE,65,0.0,0.0,92,0.01,BKN,SKC,0.02,116.0,WeatherDisplay:10.37,2017-05-29 17:41:00,
2017-05-29 13:46:00,50.7,48.5,30.00,ESE,105,4.6,4.6,92,0.01,BKN,SKC,0.02,113.0,WeatherDisplay:10.37,2017-05-29 17:46:00,
2017-05-29 13:51:00,50.5,48.3,30.00,ESE,113,9.2,9.2,92,0.01,BKN,SKC,0.02,116.0,WeatherDisplay:10.37,2017-05-29 17:51:00,
2017-05-29 13:56:00,50.4,48.2,30.00,ENE,77,0.0,0.0,92,0.00,BKN,SKC,0.02,130.0,WeatherDisplay:10.37,2017-05-29 17:56:00,
2017-05-29 14:01:00,50.4,48.2,30.00,SE,139,9.2,9.2,92,0.00,BKN,SKC,0.02,151.0,WeatherDisplay:10.37,2017-05-29 18:01:00,
2017-05-29 14:06:00,50.4,48.2,30.00,East,86,8.1,8.1,92,0.00,BKN,SKC,0.02,167.0,WeatherDisplay:10.37,2017-05-29 18:06:00,
2017-05-29 14:11:00,50.4,48.2,30.00,ENE,63,3.5,3.5,92,0.00,BKN,SKC,0.02,248.0,WeatherDisplay:10.37,2017-05-29 18:11:00,
2017-05-29 14:16:00,50.6,48.7,30.01,South,179,9.2,9.2,93,0.00,BKN,SKC,0.02,253.0,WeatherDisplay:10.37,2017-05-29 18:16:00,
2017-05-29 14:21:00,50.7,48.5,30.01,South,177,8.1,8.1,92,0.00,BKN,SKC,0.02,93.0,WeatherDisplay:10.37,2017-05-29 18:21:00,
2017-05-29 14:26:00,50.5,48.3,30.01,ESE,113,6.9,6.9,92,0.00,BKN,SKC,0.02,127.0,WeatherDisplay:10.37,2017-05-29 18:26:00,
2017-05-29 14:31:00,50.4,48.2,30.02,NE,46,8.1,8.1,92,0.00,BKN,SKC,0.02,139.0,WeatherDisplay:10.37,2017-05-29 18:31:00,
2017-05-29 14:36:00,50.3,48.1,30.02,East,84,5.8,5.8,92,0.00,BKN,SKC,0.02,186.0,WeatherDisplay:10.37,2017-05-29 18:36:00,
2017-05-29 14:41:00,50.5,48.3,30.02,SE,138,8.0,8.0,92,0.00,BKN,SKC,0.02,160.0,WeatherDisplay:10.37,2017-05-29 18:41:00,
2017-05-29 14:46:00,50.4,48.2,30.02,ESE,102,3.0,3.0,92,0.00,BKN,SKC,0.02,135.0,WeatherDisplay:10.37,2017-05-29 18:46:00,
2017-05-29 14:51:00,50.3,48.1,30.02,SE,144,9.2,9.2,92,0.00,BKN,SKC,0.02,137.0,WeatherDisplay:10.37,2017-05-29 18:51:00,
2017-05-29 14:56:00,50.3,48.1,30.03,ENE,74,3.5,0.0,92,0.00,BKN,SKC,0.02,153.0,WeatherDisplay:10.37,2017-05-29 18:56:00,
2017-05-29 15:01:00,50.3,48.1,30.03,East,92,8.1,8.1,92,0.00,BKN,SKC,0.02,100.0,WeatherDisplay:10.37,2017-05-29 19:01:00,
2017-05-29 15:06:00,50.2,47.7,30.03,SE,134,6.9,6.9,91,0.00,BKN,SKC,0.02,74.0,WeatherDisplay:10.37,2017-05-29 19:06:00,
2017-05-29 15:11:00,50.1,47.6,30.04,East,80,3.5,3.5,91,0.00,BKN,SKC,0.02,54.0,WeatherDisplay:10.37,2017-05-29 19:11:00,
2017-05-29 15:16:00,49.9,47.4,30.04,SE,128,3.5,0.0,91,0.00,BKN,SKC,0.02,62.0,WeatherDisplay:10.37,2017-05-29 19:16:00,
2017-05-29 15:21:00,49.9,47.4,30.05,SE,124,0.0,0.0,91,0.01,RA,SKC,0.03,69.0,WeatherDisplay:10.37,2017-05-29 19:21:00,
2017-05-29 15:26:00,49.9,47.4,30.05,ENE,75,3.5,3.5,91,0.02,RA,SKC,0.04,93.0,WeatherDisplay:10.37,2017-05-29 19:26:00,
2017-05-29 15:31:00,49.8,47.6,30.05,ESE,108,0.0,0.0,92,0.02,RA,SKC,0.04,84.0,WeatherDisplay:10.37,2017-05-29 19:31:00,
2017-05-29 15:36:00,49.9,47.7,30.05,ESE,123,0.0,0.0,92,0.03,RA,SKC,0.05,97.0,WeatherDisplay:10.37,2017-05-29 19:36:00,
2017-05-29 15:41:00,49.9,47.7,30.05,ESE,122,0.0,0.0,92,0.03,RA,SKC,0.05,116.0,WeatherDisplay:10.37,2017-05-29 19:41:00,
2017-05-29 15:46:00,49.9,47.7,30.05,East,90,0.0,0.0,92,0.04,RA,SKC,0.06,111.0,WeatherDisplay:10.37,2017-05-29 19:46:00,
2017-05-29 15:51:00,49.9,47.7,30.05,SE,127,1.2,1.2,92,0.04,RA,SKC,0.06,98.0,WeatherDisplay:10.37,2017-05-29 19:51:00,
2017-05-29 15:56:00,49.9,48.0,30.05,ESE,104,2.3,2.3,93,0.05,RA,SKC,0.07,109.0,WeatherDisplay:10.37,2017-05-29 19:56:00,
2017-05-29 16:01:00,50.0,48.1,30.05,ENE,63,3.5,3.5,93,0.05,RA,SKC,0.07,65.0,WeatherDisplay:10.37,2017-05-29 20:01:00,
2017-05-29 16:06:00,49.9,47.7,30.06,ENE,71,2.3,0.0,92,0.05,BKN,SKC,0.07,56.0,WeatherDisplay:10.37,2017-05-29 20:06:00,
2017-05-29 16:11:00,49.7,47.5,30.06,ESE,121,3.5,3.5,92,0.06,RA,SKC,0.08,70.0,WeatherDisplay:10.37,2017-05-29 20:11:00,
2017-05-29 16:16:00,49.6,47.4,30.06,ENE,62,0.0,0.0,92,0.06,RA,SKC,0.08,67.0,WeatherDisplay:10.37,2017-05-29 20:16:00,
2017-05-29 16:21:00,49.5,47.3,30.06,NE,47,3.5,3.5,92,0.05,BKN,SKC,0.08,77.0,WeatherDisplay:10.37,2017-05-29 20:21:00,
2017-05-29 16:26:00,49.4,47.5,30.06,ESE,105,3.0,0.0,93,0.04,BKN,SKC,0.08,156.0,WeatherDisplay:10.37,2017-05-29 20:26:00,
2017-05-29 16:31:00,49.4,47.5,30.06,East,96,0.0,0.0,93,0.05,RA,SKC,0.09,162.0,WeatherDisplay:10.37,2017-05-29 20:31:00,
2017-05-29 16:36:00,49.5,47.6,30.05,ENE,60,2.0,2.0,93,0.04,RA,SKC,0.09,185.0,WeatherDisplay:10.37,2017-05-29 20:36:00,
2017-05-29 16:41:00,49.5,47.6,30.05,NE,46,6.9,6.9,93,0.04,BKN,SKC,0.09,135.0,WeatherDisplay:10.37,2017-05-29 20:41:00,
2017-05-29 16:46:00,49.6,47.7,30.05,East,92,2.0,2.0,93,0.03,BKN,SKC,0.09,151.0,WeatherDisplay:10.37,2017-05-29 20:46:00,
2017-05-29 16:51:00,49.7,48.0,30.05,ESE,111,9.2,9.2,94,0.03,BKN,SKC,0.09,123.0,WeatherDisplay:10.37,2017-05-29 20:51:00,
2017-05-29 16:56:00,49.6,47.7,30.05,East,98,0.0,0.0,93,0.02,BKN,SKC,0.09,241.0,WeatherDisplay:10.37,2017-05-29 20:56:00,
2017-05-29 17:01:00,49.6,47.9,30.05,East,87,5.8,5.8,94,0.02,BKN,SKC,0.09,139.0,WeatherDisplay:10.37,2017-05-29 21:01:00,
2017-05-29 17:06:00,49.7,48.0,30.06,ESE,102,3.5,3.5,94,0.02,BKN,SKC,0.09,98.0,WeatherDisplay:10.37,2017-05-29 21:06:00,
2017-05-29 17:11:00,49.7,47.8,30.06,East,96,2.0,2.0,93,0.01,BKN,SKC,0.09,86.0,WeatherDisplay:10.37,2017-05-29 21:11:00,
2017-05-29 17:16:00,49.5,47.6,30.06,SSE,165,2.0,2.0,93,0.01,BKN,SKC,0.09,81.0,WeatherDisplay:10.37,2017-05-29 21:16:00,
2017-05-29 17:21:00,49.4,47.5,30.06,East,90,0.0,0.0,93,0.01,BKN,SKC,0.09,95.0,WeatherDisplay:10.37,2017-05-29 21:21:00,
2017-05-29 17:26:00,49.6,47.9,30.05,ESE,116,7.0,7.0,94,0.01,BKN,SKC,0.09,146.0,WeatherDisplay:10.37,2017-05-29 21:26:00,
2017-05-29 17:31:00,49.6,47.7,30.05,SSE,168,6.9,6.9,93,0.00,BKN,SKC,0.09,98.0,WeatherDisplay:10.37,2017-05-29 21:31:00,
2017-05-29 17:33:00,49.6,47.7,30.05,SSE,164,0.0,0.0,93,0.00,BKN,SKC,0.09,81.0,WeatherDisplay:10.37,2017-05-29 21:33:00,
2017-05-29 17:38:00,49.6,47.7,30.06,ESE,118,5.8,5.8,93,0.00,BKN,SKC,0.09,84.0,WeatherDisplay:10.37,2017-05-29 21:38:00,
2017-05-29 17:43:00,49.5,47.6,30.06,East,91,3.0,3.0,93,0.00,BKN,SKC,0.09,88.0,WeatherDisplay:10.37,2017-05-29 21:43:00,
2017-05-29 17:48:00,49.6,47.7,30.06,SSE,148,0.0,0.0,93,0.00,BKN,SKC,0.09,58.0,WeatherDisplay:10.37,2017-05-29 21:48:00,
2017-05-29 17:53:00,49.5,47.6,30.06,ESE,116,2.3,2.3,93,0.00,BKN,SKC,0.09,90.0,WeatherDisplay:10.37,2017-05-29 21:53:00,
2017-05-29 17:58:00,49.5,47.6,30.06,SE,146,0.0,0.0,93,0.00,BKN,SKC,0.09,107.0,WeatherDisplay:10.37,2017-05-29 21:58:00,
2017-05-29 18:03:00,49.6,47.7,30.06,ESE,113,3.5,3.5,93,0.00,BKN,SKC,0.09,79.0,WeatherDisplay:10.37,2017-05-29 22:03:00,
2017-05-29 18:08:00,49.7,47.8,30.06,East,99,0.0,0.0,93,0.00,BKN,SKC,0.09,91.0,WeatherDisplay:10.37,2017-05-29 22:08:00,
2017-05-29 18:13:00,49.8,47.9,30.07,East,84,0.0,0.0,93,0.00,BKN,SKC,0.09,62.0,WeatherDisplay:10.37,2017-05-29 22:13:00,
2017-05-29 18:18:00,49.8,48.1,30.07,East,90,0.0,0.0,94,0.00,BKN,SKC,0.09,81.0,WeatherDisplay:10.37,2017-05-29 22:18:00,
2017-05-29 18:23:00,49.9,48.2,30.07,SE,138,0.0,0.0,94,0.00,BKN,SKC,0.09,79.0,WeatherDisplay:10.37,2017-05-29 22:23:00,
2017-05-29 18:28:00,49.9,48.0,30.07,East,85,0.0,0.0,93,0.00,BKN,SKC,0.09,81.0,WeatherDisplay:10.37,2017-05-29 22:28:00,
2017-05-29 18:33:00,49.9,48.0,30.08,East,85,0.0,0.0,93,0.00,BKN,SKC,0.09,51.0,WeatherDisplay:10.37,2017-05-29 22:33:00,
2017-05-29 18:34:00,49.9,48.0,30.08,East,85,0.0,0.0,93,0.00,BKN,SKC,0.09,49.0,WeatherDisplay:10.37,2017-05-29 22:34:00,
2017-05-29 18:39:00,50.0,48.1,30.08,ESE,103,3.5,0.0,93,0.00,BKN,SKC,0.09,39.0,WeatherDisplay:10.37,2017-05-29 22:39:00,
2017-05-29 18:44:00,49.9,48.0,30.08,East,90,0.0,0.0,93,0.00,BKN,SKC,0.09,26.0,WeatherDisplay:10.37,2017-05-29 22:44:00,
2017-05-29 18:49:00,49.7,47.8,30.08,East,86,3.5,0.0,93,0.00,BKN,SKC,0.09,37.0,WeatherDisplay:10.37,2017-05-29 22:49:00,
2017-05-29 18:54:00,49.4,47.5,30.08,ESE,119,2.3,2.3,93,0.00,BKN,SKC,0.09,30.0,WeatherDisplay:10.37,2017-05-29 22:54:00,
2017-05-29 19:04:00,49.2,47.3,30.08,ESE,109,6.0,6.0,93,0.00,BKN,SKC,0.09,19.0,WeatherDisplay:10.37,2017-05-29 23:04:00,
2017-05-29 19:09:00,49.0,47.1,30.08,East,85,4.0,4.0,93,0.00,BKN,SKC,0.09,18.0,WeatherDisplay:10.37,2017-05-29 23:09:00,
2017-05-29 19:14:00,48.8,46.9,30.08,ESE,115,3.5,3.5,93,0.00,BKN,SKC,0.09,18.0,WeatherDisplay:10.37,2017-05-29 23:14:00,
2017-05-29 19:15:00,48.8,46.9,30.08,ESE,103,0.0,0.0,93,0.00,BKN,SKC,0.09,18.0,WeatherDisplay:10.37,2017-05-29 23:15:00,
2017-05-29 19:20:00,48.7,46.8,30.09,SE,126,0.0,0.0,93,0.00,BKN,SKC,0.09,11.0,WeatherDisplay:10.37,2017-05-29 23:20:00,
2017-05-29 19:25:00,48.6,46.7,30.09,ESE,121,0.0,0.0,93,0.00,BKN,SKC,0.09,9.0,WeatherDisplay:10.37,2017-05-29 23:25:00,
2017-05-29 19:30:00,48.5,46.6,30.10,SSE,147,2.3,2.3,93,0.00,BKN,SKC,0.09,7.0,WeatherDisplay:10.37,2017-05-29 23:30:00,
2017-05-29 19:35:00,48.4,46.5,30.10,East,98,1.0,1.0,93,0.00,BKN,SKC,0.09,5.0,WeatherDisplay:10.37,2017-05-29 23:35:00,
2017-05-29 19:40:00,48.2,46.3,30.10,SE,130,4.6,4.6,93,0.00,BKN,SKC,0.09,5.0,WeatherDisplay:10.37,2017-05-29 23:40:00,
2017-05-29 19:45:00,48.0,46.1,30.10,SE,136,1.2,1.2,93,0.00,BKN,SKC,0.09,5.0,WeatherDisplay:10.37,2017-05-29 23:45:00,
2017-05-29 19:50:00,47.8,45.9,30.10,ESE,115,5.8,5.8,93,0.00,BKN,SKC,0.09,5.0,WeatherDisplay:10.37,2017-05-29 23:50:00,
2017-05-29 19:55:00,47.7,45.8,30.10,ENE,67,0.0,0.0,93,0.00,BKN,SKC,0.09,9.0,WeatherDisplay:10.37,2017-05-29 23:55:00,
2017-05-29 20:00:00,47.5,45.6,30.10,ESE,110,3.5,3.5,93,0.00,BKN,SKC,0.09,12.0,WeatherDisplay:10.37,2017-05-30 00:00:00,
2017-05-29 20:05:00,47.4,45.8,30.10,East,89,0.0,0.0,94,0.00,BKN,SKC,0.09,5.0,WeatherDisplay:10.37,2017-05-30 00:05:00,
2017-05-29 20:10:00,47.4,45.8,30.10,SE,140,3.5,3.5,94,0.00,CLR,SKC,0.09,0.0,WeatherDisplay:10.37,2017-05-30 00:10:00,
2017-05-29 20:15:00,47.2,45.6,30.10,SE,135,3.5,3.5,94,0.00,CLR,SKC,0.09,0.0,WeatherDisplay:10.37,2017-05-30 00:15:00,
2017-05-29 20:20:00,47.1,45.5,30.10,East,86,2.3,2.3,94,0.00,CLR,SKC,0.09,0.0,WeatherDisplay:10.37,2017-05-30 00:20:00,
2017-05-29 20:25:00,47.0,45.4,30.11,SE,138,0.0,0.0,94,0.00,CLR,SKC,0.09,0.0,WeatherDisplay:10.37,2017-05-30 00:25:00,
2017-05-29 20:30:00,47.0,45.4,30.11,ESE,105,1.2,1.2,94,0.00,CLR,SKC,0.09,0.0,WeatherDisplay:10.37,2017-05-30 00:30:00,
2017-05-29 20:35:00,46.9,45.3,30.11,ENE,63,1.2,1.2,94,0.00,CLR,SKC,0.09,0.0,WeatherDisplay:10.37,2017-05-30 00:35:00,
2017-05-29 20:40:00,46.9,45.3,30.11,East,84,0.0,0.3,94,0.00,CLR,SKC,0.09,0.0,WeatherDisplay:10.37,2017-05-30 00:40:00,
2017-05-29 20:45:00,46.9,45.3,30.11,East,96,2.0,2.0,94,0.00,CLR,SKC,0.09,0.0,WeatherDisplay:10.37,2017-05-30 00:45:00,
2017-05-29 20:50:00,46.8,45.4,30.11,ENE,67,1.2,0.0,95,0.00,CLR,SKC,0.09,0.0,WeatherDisplay:10.37,2017-05-30 00:50:00,
2017-05-29 20:55:00,46.8,45.4,30.11,ESE,112,2.3,0.0,95,0.00,CLR,SKC,0.09,0.0,WeatherDisplay:10.37,2017-05-30 00:55:00,
2017-05-29 21:00:00,46.7,45.1,30.11,SSE,155,0.0,0.0,94,0.00,CLR,SKC,0.09,0.0,WeatherDisplay:10.37,2017-05-30 01:00:00,
2017-05-29 21:05:00,46.7,45.3,30.11,East,101,8.1,8.1,95,0.00,CLR,SKC,0.09,0.0,WeatherDisplay:10.37,2017-05-30 01:05:00,
2017-05-29 21:10:00,46.6,45.2,30.11,East,95,3.0,3.0,95,0.00,CLR,SKC,0.09,0.0,WeatherDisplay:10.37,2017-05-30 01:10:00,
2017-05-29 21:15:00,46.6,45.2,30.11,SSE,155,0.0,1.1,95,0.00,CLR,SKC,0.09,0.0,WeatherDisplay:10.37,2017-05-30 01:15:00,
2017-05-29 21:20:00,46.5,45.1,30.11,ESE,117,0.0,0.6,95,0.00,CLR,SKC,0.09,0.0,WeatherDisplay:10.37,2017-05-30 01:20:00,
2017-05-29 21:25:00,46.5,45.1,30.11,South,178,6.9,6.9,95,0.00,CLR,SKC,0.09,0.0,WeatherDisplay:10.37,2017-05-30 01:25:00,
2017-05-29 21:30:00,46.5,45.1,30.11,ESE,103,3.5,3.5,95,0.00,CLR,SKC,0.09,0.0,WeatherDisplay:10.37,2017-05-30 01:30:00,
2017-05-29 21:35:00,46.5,45.1,30.12,SE,144,2.3,2.3,95,0.00,CLR,SKC,0.09,0.0,WeatherDisplay:10.37,2017-05-30 01:35:00,
2017-05-29 21:40:00,46.5,45.1,30.12,South,182,4.0,4.0,95,0.00,CLR,SKC,0.09,0.0,WeatherDisplay:10.37,2017-05-30 01:40:00,
2017-05-29 21:45:00,46.4,45.0,30.12,East,82,8.1,8.1,95,0.00,CLR,SKC,0.09,0.0,WeatherDisplay:10.37,2017-05-30 01:45:00,
2017-05-29 21:50:00,46.4,45.0,30.12,SE,143,3.5,3.5,95,0.00,CLR,SKC,0.09,0.0,WeatherDisplay:10.37,2017-05-30 01:50:00,
2017-05-29 21:55:00,46.4,45.0,30.12,ESE,110,0.0,0.0,95,0.00,CLR,SKC,0.09,0.0,WeatherDisplay:10.37,2017-05-30 01:55:00,
2017-05-29 22:00:00,46.4,45.0,30.12,SE,136,0.0,0.0,95,0.00,CLR,SKC,0.09,0.0,WeatherDisplay:10.37,2017-05-30 02:00:00,
2017-05-29 22:05:00,46.4,45.0,30.12,SE,132,2.3,2.3,95,0.00,CLR,SKC,0.09,0.0,WeatherDisplay:10.37,2017-05-30 02:05:00,